Time;durP1;ratioP1;P1;durP2;ratioP2;P2;SDS_P1;SDS_P2;PMS_P1;PMS_P2;Temp;Humidity;BMP_temperature;BMP_pressure;BME280_temperature;BME280_humidity;BME280_pressure;Samples;Min_cycle;Max_cycle;Signal;HPM_P1;HPM_P2
2021/07/28 00:00:33;;;;;;;0.22;0.20;;;18.10;77.30;;;;;;5014716;28;20084;-77
2021/07/28 00:02:59;;;;;;;0.30;0.20;;;18.00;77.40;;;;;;5034194;28;20022;-78
2021/07/28 00:05:25;;;;;;;0.57;0.25;;;18.00;77.50;;;;;;5014861;28;20037;-78
2021/07/28 00:07:51;;;;;;;0.22;0.20;;;18.00;77.40;;;;;;5014738;28;20139;-78
2021/07/28 00:10:17;;;;;;;0.40;0.30;;;17.90;77.50;;;;;;5014978;28;20046;-78
2021/07/28 00:12:43;;;;;;;0.30;0.25;;;17.90;77.30;;;;;;5017968;28;20477;-78
2021/07/28 00:15:14;;;;;;;0.50;0.30;;;17.90;77.30;;;;;;5018148;28;20515;-77
2021/07/28 00:18:03;;;;;;;0.30;0.20;;;17.80;77.30;;;;;;5018193;28;20085;-78
2021/07/28 00:23:14;;;;;;;0.50;0.20;;;17.60;77.70;;;;;;5018674;28;20030;-78
2021/07/28 00:25:44;;;;;;;0.43;0.30;;;17.60;77.70;;;;;;5018318;28;20037;-77
2021/07/28 00:28:14;;;;;;;0.38;0.30;;;17.60;77.70;;;;;;5018156;28;20101;-77
2021/07/28 00:30:43;;;;;;;0.75;0.30;;;17.50;77.60;;;;;;5018055;28;20064;-78
2021/07/28 00:33:09;;;;;;;0.40;0.20;;;17.50;77.70;;;;;;5018309;28;20030;-77
2021/07/28 00:35:35;;;;;;;0.22;0.20;;;17.40;77.70;;;;;;5016592;28;20057;-78
2021/07/28 00:38:10;;;;;;;0.32;0.20;;;17.40;77.70;;;;;;5017662;28;20030;-77
2021/07/28 00:40:35;;;;;;;0.20;0.20;;;17.30;77.70;;;;;;5019659;28;20033;-77
2021/07/28 00:43:13;;;;;;;0.20;0.20;;;17.30;77.70;;;;;;5037659;28;20063;-77
2021/07/28 00:45:39;;;;;;;0.63;0.30;;;17.30;77.70;;;;;;5037425;28;20484;-78
2021/07/28 00:48:07;;;;;;;0.22;0.20;;;17.30;77.40;;;;;;5037593;28;20131;-78
2021/07/28 00:50:34;;;;;;;0.35;0.30;;;17.30;77.60;;;;;;5026902;28;20029;-78
2021/07/28 00:53:01;;;;;;;0.55;0.25;;;17.30;77.70;;;;;;5023998;28;20516;-78
2021/07/28 00:55:29;;;;;;;0.47;0.30;;;17.20;77.80;;;;;;5027350;28;20464;-77
2021/07/28 00:57:54;;;;;;;0.40;0.28;;;17.10;77.50;;;;;;5016575;28;20468;-77
2021/07/28 01:00:25;;;;;;;0.40;0.20;;;17.20;77.70;;;;;;5017323;28;20080;-78
2021/07/28 01:02:50;;;;;;;0.30;0.20;;;17.20;77.70;;;;;;5017555;28;20030;-78
2021/07/28 01:05:16;;;;;;;0.22;0.20;;;17.10;77.80;;;;;;5017622;28;20830;-77
2021/07/28 01:07:41;;;;;;;0.38;0.20;;;17.00;77.70;;;;;;5017359;28;20030;-77
2021/07/28 01:10:08;;;;;;;0.70;0.20;;;17.10;77.70;;;;;;5017028;28;20072;-77
2021/07/28 01:12:34;;;;;;;0.20;0.20;;;17.00;77.70;;;;;;5015763;28;20033;-77
2021/07/28 01:15:00;;;;;;;0.30;0.30;;;17.00;77.60;;;;;;5017048;28;20079;-78
2021/07/28 01:17:45;;;;;;;0.20;0.20;;;17.00;77.60;;;;;;5017028;28;20112;-77
2021/07/28 01:20:11;;;;;;;0.50;0.20;;;17.00;77.60;;;;;;5017220;28;20034;-78
2021/07/28 01:22:37;;;;;;;0.50;0.40;;;16.90;77.80;;;;;;5016904;28;20026;-78
2021/07/28 01:25:03;;;;;;;0.63;0.30;;;16.90;77.60;;;;;;5018760;28;20041;-77
2021/07/28 01:27:30;;;;;;;0.50;0.40;;;16.80;78.00;;;;;;5017262;28;20017;-78
2021/07/28 01:29:56;;;;;;;0.30;0.20;;;16.80;77.90;;;;;;5016353;28;20033;-78
2021/07/28 01:32:22;;;;;;;0.30;0.20;;;16.70;78.40;;;;;;5017048;28;20061;-77
2021/07/28 01:34:53;;;;;;;0.25;0.20;;;16.70;78.40;;;;;;5016508;28;20077;-77
2021/07/28 01:37:21;;;;;;;0.57;0.28;;;16.70;78.30;;;;;;5016958;28;20393;-77
2021/07/28 01:39:46;;;;;;;0.47;0.25;;;16.70;78.40;;;;;;5015213;28;20080;-77
2021/07/28 01:42:12;;;;;;;0.30;0.20;;;16.70;78.00;;;;;;5017011;28;20018;-78
2021/07/28 01:44:39;;;;;;;0.20;0.20;;;16.70;77.80;;;;;;5016685;28;20026;-78
2021/07/28 01:47:05;;;;;;;0.40;0.30;;;16.60;78.00;;;;;;5029274;28;20022;-77
2021/07/28 01:49:30;;;;;;;0.30;0.20;;;16.50;78.30;;;;;;5017246;28;20071;-77
2021/07/28 01:51:56;;;;;;;0.30;0.20;;;16.40;78.70;;;;;;5016442;28;20518;-78
2021/07/28 01:54:22;;;;;;;0.20;0.20;;;16.30;79.10;;;;;;5028880;28;20038;-78
2021/07/28 01:56:47;;;;;;;0.38;0.30;;;16.50;78.80;;;;;;5016481;28;20108;-77
2021/07/28 01:59:15;;;;;;;0.30;0.20;;;16.40;78.90;;;;;;5016308;28;20017;-77
2021/07/28 02:01:40;;;;;;;0.50;0.30;;;16.50;78.70;;;;;;5016233;28;20108;-78
2021/07/28 02:04:06;;;;;;;0.32;0.30;;;16.30;79.30;;;;;;5016455;28;20060;-77
2021/07/28 02:06:33;;;;;;;0.40;0.20;;;16.30;79.10;;;;;;5016175;28;20037;-77
2021/07/28 02:08:59;;;;;;;0.63;0.30;;;16.30;79.20;;;;;;5016224;28;20108;-77
2021/07/28 02:11:24;;;;;;;0.35;0.30;;;16.30;79.30;;;;;;5016004;28;20068;-78
2021/07/28 02:13:50;;;;;;;0.32;0.25;;;16.40;79.10;;;;;;5016193;28;20029;-78
2021/07/28 02:16:16;;;;;;;0.20;0.20;;;16.30;79.10;;;;;;5015991;28;20030;-77
2021/07/28 02:18:41;;;;;;;0.20;0.20;;;16.40;78.80;;;;;;5015948;28;20113;-77
2021/07/28 02:21:07;;;;;;;0.47;0.30;;;16.40;78.80;;;;;;5015115;28;20061;-78
2021/07/28 02:23:33;;;;;;;0.20;0.20;;;16.40;78.90;;;;;;5016077;28;20033;-77
2021/07/28 02:26:01;;;;;;;0.40;0.20;;;16.20;79.50;;;;;;5015891;28;20496;-77
2021/07/28 02:28:26;;;;;;;0.35;0.20;;;16.20;79.80;;;;;;5016259;28;20110;-77
2021/07/28 02:30:52;;;;;;;0.40;0.30;;;16.30;79.60;;;;;;5015758;28;20025;-77
2021/07/28 02:33:18;;;;;;;0.50;0.30;;;16.30;79.30;;;;;;5015114;28;20026;-78
2021/07/28 02:35:43;;;;;;;0.25;0.20;;;16.20;79.50;;;;;;5015874;28;20057;-78
2021/07/28 02:38:09;;;;;;;0.20;0.20;;;16.20;79.70;;;;;;5015808;28;20081;-78
2021/07/28 02:40:36;;;;;;;0.60;0.30;;;16.10;79.70;;;;;;5015733;28;20064;-78
2021/07/28 02:43:06;;;;;;;0.25;0.25;;;16.00;80.20;;;;;;5015626;28;20029;-77
2021/07/28 02:45:33;;;;;;;0.52;0.38;;;16.10;80.10;;;;;;5014677;28;20080;-78
2021/07/28 02:48:03;;;;;;;0.45;0.20;;;16.00;80.10;;;;;;5035377;28;20543;-77
2021/07/28 02:50:28;;;;;;;0.60;0.30;;;16.10;80.10;;;;;;5031912;28;20021;-78
2021/07/28 02:52:54;;;;;;;0.38;0.30;;;16.00;80.20;;;;;;5020607;28;20555;-77
2021/07/28 02:55:19;;;;;;;0.22;0.22;;;16.00;79.90;;;;;;5035366;28;20029;-77
2021/07/28 02:57:45;;;;;;;0.30;0.20;;;16.00;80.00;;;;;;5035524;28;20109;-77
2021/07/28 03:00:11;;;;;;;0.50;0.30;;;16.00;80.20;;;;;;5021887;28;20862;-77
2021/07/28 03:02:37;;;;;;;0.30;0.30;;;16.00;79.90;;;;;;5015853;28;20077;-77
2021/07/28 03:05:03;;;;;;;0.50;0.30;;;16.00;79.90;;;;;;5015260;28;20034;-77
2021/07/28 03:07:29;;;;;;;0.70;0.38;;;16.00;80.00;;;;;;5014464;28;20113;-77
2021/07/28 03:09:55;;;;;;;0.40;0.30;;;16.00;80.10;;;;;;5015636;28;20093;-78
2021/07/28 03:12:20;;;;;;;0.28;0.20;;;15.90;80.30;;;;;;5015470;28;20145;-77
2021/07/28 03:14:46;;;;;;;0.43;0.30;;;15.90;80.30;;;;;;5015170;28;20022;-77
2021/07/28 03:17:18;;;;;;;0.40;0.35;;;15.80;80.20;;;;;;5015269;28;20088;-77
2021/07/28 03:19:44;;;;;;;0.30;0.30;;;15.90;80.20;;;;;;5014260;28;20120;-78
2021/07/28 03:22:10;;;;;;;0.25;0.25;;;16.00;80.10;;;;;;5015457;28;20504;-77
2021/07/28 03:24:35;;;;;;;0.50;0.28;;;16.00;80.10;;;;;;5030596;28;20032;-78
2021/07/28 03:27:01;;;;;;;0.47;0.30;;;15.80;80.40;;;;;;5015289;28;20029;-77
2021/07/28 03:29:26;;;;;;;0.38;0.20;;;15.80;80.40;;;;;;5014890;28;20097;-77
2021/07/28 03:31:52;;;;;;;0.65;0.28;;;15.80;80.10;;;;;;5015225;28;20018;-77
2021/07/28 03:34:22;;;;;;;0.40;0.30;;;15.80;80.00;;;;;;5029064;28;20132;-77
2021/07/28 03:36:48;;;;;;;0.60;0.30;;;15.80;79.90;;;;;;5014232;28;20034;-77
2021/07/28 03:39:14;;;;;;;0.30;0.20;;;15.80;80.30;;;;;;5013942;28;20048;-78
2021/07/28 03:41:39;;;;;;;0.30;0.30;;;15.80;80.10;;;;;;5015250;28;20105;-77
2021/07/28 03:44:06;;;;;;;0.30;0.20;;;15.70;80.50;;;;;;5014901;28;20037;-77
2021/07/28 03:46:31;;;;;;;0.40;0.30;;;15.70;80.60;;;;;;5026795;28;20020;-77
2021/07/28 03:48:57;;;;;;;0.35;0.28;;;15.70;80.40;;;;;;5037272;28;20539;-77
2021/07/28 03:51:41;;;;;;;0.50;0.30;;;15.70;80.40;;;;;;5027312;28;20038;-77
2021/07/28 03:54:06;;;;;;;0.28;0.20;;;15.70;80.60;;;;;;5034198;28;20510;-77
2021/07/28 03:56:32;;;;;;;0.30;0.25;;;15.70;80.10;;;;;;5038529;28;20462;-77
2021/07/28 03:58:57;;;;;;;0.50;0.30;;;15.80;79.50;;;;;;5036340;28;20029;-77
2021/07/28 04:01:23;;;;;;;0.30;0.30;;;15.80;79.60;;;;;;5018658;28;20029;-78
2021/07/28 04:03:52;;;;;;;0.20;0.20;;;15.80;79.40;;;;;;5017567;28;20026;-77
2021/07/28 04:06:19;;;;;;;0.45;0.30;;;15.80;79.90;;;;;;5018619;28;20057;-78
2021/07/28 04:08:47;;;;;;;0.30;0.30;;;15.70;80.10;;;;;;5018320;28;20038;-77
2021/07/28 04:11:13;;;;;;;0.55;0.30;;;15.70;80.10;;;;;;5018612;28;20033;-77
2021/07/28 04:13:38;;;;;;;0.50;0.35;;;15.70;79.90;;;;;;5018559;28;20038;-77
2021/07/28 04:16:04;;;;;;;0.60;0.30;;;15.50;80.30;;;;;;5018313;28;21502;-77
2021/07/28 04:18:30;;;;;;;0.40;0.30;;;15.40;81.00;;;;;;5018029;28;20034;-78
2021/07/28 04:20:55;;;;;;;0.35;0.22;;;15.40;81.20;;;;;;5016976;28;20026;-78
2021/07/28 04:23:21;;;;;;;0.22;0.20;;;15.30;81.00;;;;;;5018185;28;20038;-78
2021/07/28 04:25:52;;;;;;;0.40;0.30;;;15.30;81.20;;;;;;5018482;28;20481;-77
2021/07/28 04:28:18;;;;;;;0.30;0.30;;;15.30;81.00;;;;;;5032230;28;20393;-78
2021/07/28 04:30:43;;;;;;;0.40;0.30;;;15.30;81.10;;;;;;5018148;28;20132;-78
2021/07/28 04:33:09;;;;;;;0.20;0.20;;;15.30;81.20;;;;;;5018200;28;20030;-77
2021/07/28 04:35:34;;;;;;;0.30;0.25;;;15.40;81.30;;;;;;5017663;28;20054;-77
2021/07/28 04:38:00;;;;;;;0.30;0.30;;;15.50;81.30;;;;;;5018030;28;20034;-77
2021/07/28 04:40:26;;;;;;;0.30;0.30;;;15.30;82.00;;;;;;5017887;28;20026;-77
2021/07/28 04:42:54;;;;;;;0.60;0.30;;;15.40;81.80;;;;;;5022901;28;20085;-78
2021/07/28 04:45:19;;;;;;;0.50;0.30;;;15.40;81.90;;;;;;5018126;28;20034;-77
2021/07/28 04:47:45;;;;;;;0.40;0.30;;;15.40;82.00;;;;;;5025980;28;20384;-78
2021/07/28 04:50:11;;;;;;;0.38;0.30;;;15.40;82.50;;;;;;5037390;28;20419;-78
2021/07/28 04:52:36;;;;;;;0.30;0.20;;;15.40;82.70;;;;;;5021168;28;20365;-87
2021/07/28 04:55:02;;;;;;;0.40;0.30;;;15.30;83.10;;;;;;5036104;28;20060;-79
2021/07/28 04:57:28;;;;;;;0.55;0.40;;;15.40;82.90;;;;;;5035384;28;20021;-78
2021/07/28 04:59:54;;;;;;;0.30;0.30;;;15.50;82.70;;;;;;5024328;28;20022;-84
2021/07/28 05:02:23;;;;;;;1.00;0.30;;;15.50;82.90;;;;;;5030742;28;20030;-84
2021/07/28 05:04:48;;;;;;;0.30;0.20;;;15.60;82.70;;;;;;5031585;28;20028;-83
2021/07/28 05:07:14;;;;;;;0.40;0.30;;;15.50;82.90;;;;;;5027705;28;20037;-81
2021/07/28 05:09:40;;;;;;;0.28;0.28;;;15.50;83.10;;;;;;5030637;28;20038;-81
2021/07/28 05:12:07;;;;;;;0.52;0.30;;;15.60;83.00;;;;;;5027569;28;20025;-81
2021/07/28 05:14:32;;;;;;;0.40;0.30;;;15.70;82.80;;;;;;5031812;28;20041;-77
2021/07/28 05:16:58;;;;;;;0.93;0.30;;;15.70;82.50;;;;;;5028467;28;20025;-78
2021/07/28 05:19:23;;;;;;;0.93;0.20;;;15.80;82.40;;;;;;5035820;28;20040;-79
2021/07/28 05:21:49;;;;;;;0.40;0.30;;;15.80;82.40;;;;;;5021217;28;20018;-81
2021/07/28 05:24:15;;;;;;;0.25;0.20;;;15.80;82.50;;;;;;5016805;28;20026;-81
2021/07/28 05:26:41;;;;;;;0.38;0.30;;;15.80;82.10;;;;;;5021796;28;20542;-80
2021/07/28 05:29:06;;;;;;;0.40;0.30;;;15.90;82.40;;;;;;5016844;28;20033;-80
2021/07/28 05:31:32;;;;;;;0.68;0.30;;;16.00;82.20;;;;;;5015801;28;20219;-80
2021/07/28 05:33:58;;;;;;;0.32;0.30;;;15.90;82.00;;;;;;5016058;28;21689;-80
2021/07/28 05:36:23;;;;;;;0.40;0.30;;;16.10;81.90;;;;;;5015296;28;20030;-79
2021/07/28 05:38:49;;;;;;;0.60;0.45;;;16.00;82.10;;;;;;5016579;28;20052;-79
2021/07/28 05:41:15;;;;;;;0.22;0.20;;;16.00;82.30;;;;;;5016376;28;20388;-80
2021/07/28 05:43:40;;;;;;;0.20;0.20;;;15.90;82.30;;;;;;5015250;28;20022;-80
2021/07/28 05:46:06;;;;;;;0.50;0.30;;;16.00;82.40;;;;;;5021286;28;20427;-80
2021/07/28 05:48:32;;;;;;;0.40;0.30;;;16.10;82.50;;;;;;5026210;28;20133;-79
2021/07/28 05:50:59;;;;;;;0.38;0.30;;;16.00;82.50;;;;;;5016351;28;20052;-81
2021/07/28 05:53:25;;;;;;;0.28;0.28;;;16.00;82.70;;;;;;5026083;28;20047;-82
2021/07/28 05:55:51;;;;;;;0.20;0.20;;;15.90;83.10;;;;;;5025346;28;20069;-81
2021/07/28 05:58:16;;;;;;;0.25;0.25;;;16.10;82.40;;;;;;5021462;28;20123;-80
2021/07/28 06:00:42;;;;;;;0.32;0.30;;;16.20;82.50;;;;;;5026474;28;20029;-80
2021/07/28 06:03:07;;;;;;;0.45;0.30;;;16.30;82.00;;;;;;5025763;28;20388;-81
2021/07/28 06:05:33;;;;;;;0.28;0.25;;;16.30;82.20;;;;;;5026513;28;20030;-81
2021/07/28 06:07:59;;;;;;;0.20;0.20;;;16.40;81.80;;;;;;5026441;28;20056;-81
2021/07/28 06:10:24;;;;;;;0.47;0.30;;;16.50;81.90;;;;;;5017620;28;20117;-81
2021/07/28 06:12:50;;;;;;;0.50;0.20;;;16.60;81.40;;;;;;5014328;28;20026;-81
2021/07/28 06:15:16;;;;;;;0.50;0.30;;;16.70;81.30;;;;;;5015899;28;20026;-81
2021/07/28 06:17:41;;;;;;;0.50;0.30;;;16.80;81.30;;;;;;5016275;28;20384;-81
2021/07/28 06:20:07;;;;;;;0.30;0.20;;;16.80;81.00;;;;;;5016286;28;20029;-81
2021/07/28 06:22:34;;;;;;;0.60;0.30;;;16.80;81.40;;;;;;5015927;28;20033;-80
2021/07/28 06:25:00;;;;;;;0.43;0.30;;;16.80;81.40;;;;;;5016219;28;20030;-81
2021/07/28 06:27:26;;;;;;;0.57;0.30;;;16.90;81.30;;;;;;5016196;28;20029;-81
2021/07/28 06:29:51;;;;;;;0.20;0.20;;;17.10;80.90;;;;;;5031289;28;20034;-80
2021/07/28 06:32:17;;;;;;;0.35;0.28;;;17.20;80.30;;;;;;5015976;28;20026;-81
2021/07/28 06:34:43;;;;;;;0.22;0.20;;;17.30;80.20;;;;;;5015043;28;20087;-81
2021/07/28 06:37:09;;;;;;;0.63;0.20;;;17.40;79.80;;;;;;5033575;28;20403;-81
2021/07/28 06:39:36;;;;;;;0.40;0.28;;;17.40;80.50;;;;;;5027609;28;20046;-81
2021/07/28 06:42:02;;;;;;;0.32;0.30;;;17.60;79.90;;;;;;5014294;28;20057;-80
2021/07/28 06:44:28;;;;;;;0.20;0.17;;;17.60;79.50;;;;;;5029104;28;20064;-79
2021/07/28 06:46:53;;;;;;;0.43;0.30;;;17.70;79.50;;;;;;5026949;28;20056;-81
2021/07/28 06:49:19;;;;;;;0.15;0.15;;;17.70;79.00;;;;;;5031451;28;20092;-81
2021/07/28 06:51:45;;;;;;;0.35;0.30;;;17.80;79.00;;;;;;5015511;28;20030;-81
2021/07/28 06:54:10;;;;;;;0.50;0.30;;;17.70;79.10;;;;;;5026455;28;20034;-80
2021/07/28 06:56:37;;;;;;;0.20;0.20;;;17.70;79.30;;;;;;5014459;28;20332;-81
2021/07/28 06:59:03;;;;;;;0.43;0.20;;;17.70;80.30;;;;;;5030859;28;20037;-80
2021/07/28 07:01:28;;;;;;;0.50;0.20;;;17.80;79.70;;;;;;5015516;28;20014;-80
2021/07/28 07:03:54;;;;;;;0.40;0.22;;;17.90;79.30;;;;;;5015602;28;20026;-80
2021/07/28 07:06:19;;;;;;;0.32;0.30;;;17.90;78.80;;;;;;5015482;28;20030;-79
2021/07/28 07:08:45;;;;;;;0.20;0.20;;;18.10;79.00;;;;;;5014431;28;20030;-80
2021/07/28 07:11:11;;;;;;;0.60;0.30;;;18.30;78.30;;;;;;5015476;28;20030;-80
2021/07/28 07:13:36;;;;;;;0.50;0.20;;;18.60;77.70;;;;;;5029287;28;20029;-81
2021/07/28 07:16:02;;;;;;;0.22;0.20;;;18.70;77.00;;;;;;5014203;28;20061;-80
2021/07/28 07:18:28;;;;;;;0.30;0.20;;;18.80;77.10;;;;;;5015237;28;20084;-80
2021/07/28 07:20:53;;;;;;;0.35;0.30;;;18.70;77.30;;;;;;5018073;28;20034;-79
2021/07/28 07:23:19;;;;;;;0.38;0.20;;;18.80;77.00;;;;;;5019406;28;20770;-80
2021/07/28 07:25:45;;;;;;;0.50;0.20;;;19.20;76.60;;;;;;5018181;28;20484;-79
2021/07/28 07:28:10;;;;;;;0.30;0.20;;;20.90;71.40;;;;;;5019134;28;20030;-80
2021/07/28 07:30:36;;;;;;;0.20;0.10;;;21.70;69.10;;;;;;5019262;28;20107;-80
2021/07/28 07:35:46;;;;;;;0.10;0.10;;;20.60;71.30;;;;;;5018915;28;20045;-80
2021/07/28 07:38:12;;;;;;;0.20;0.10;;;20.50;71.30;;;;;;5018956;28;20030;-80
2021/07/28 07:40:37;;;;;;;0.25;0.13;;;20.30;71.40;;;;;;5017664;28;20440;-80
2021/07/28 07:43:06;;;;;;;0.32;0.10;;;20.60;71.30;;;;;;5018885;28;20032;-80
2021/07/28 07:45:33;;;;;;;0.30;0.10;;;20.60;72.00;;;;;;5019080;28;20054;-79
2021/07/28 07:47:59;;;;;;;0.43;0.35;;;20.60;72.10;;;;;;5018985;28;20788;-80
2021/07/28 07:50:25;;;;;;;0.17;0.10;;;21.50;70.70;;;;;;5018769;28;20038;-80
2021/07/28 07:52:50;;;;;;;0.10;0.10;;;22.10;67.40;;;;;;5023914;28;20036;-80
2021/07/28 07:55:16;;;;;;;0.20;0.10;;;22.20;65.00;;;;;;5033727;28;20030;-80
2021/07/28 07:57:42;;;;;;;0.45;0.20;;;22.40;64.40;;;;;;5034430;28;20046;-80
2021/07/28 08:00:08;;;;;;;0.30;0.10;;;22.30;65.70;;;;;;5018574;28;20030;-80
2021/07/28 08:02:33;;;;;;;0.20;0.10;;;22.00;65.30;;;;;;5018855;28;20440;-80
2021/07/28 08:04:59;;;;;;;0.10;0.10;;;23.80;61.30;;;;;;5018577;28;20025;-81
2021/07/28 08:07:25;;;;;;;0.20;0.15;;;23.60;60.60;;;;;;5018296;28;20026;-80
2021/07/28 08:09:50;;;;;;;0.20;0.20;;;25.20;56.60;;;;;;5057931;28;20063;-80
2021/07/28 08:12:16;;;;;;;0.13;0.00;;;26.80;52.80;;;;;;5057294;28;20028;-80
2021/07/28 08:14:41;;;;;;;0.00;0.00;;;26.00;52.00;;;;;;5036816;28;20436;-80
2021/07/28 08:17:07;;;;;;;0.55;0.35;;;24.70;55.80;;;;;;5036413;28;20078;-80
2021/07/28 08:19:33;;;;;;;0.20;0.10;;;24.60;56.20;;;;;;5018536;28;20030;-81
2021/07/28 08:21:58;;;;;;;0.05;0.05;;;25.50;52.30;;;;;;5018519;28;20538;-80
2021/07/28 08:24:24;;;;;;;0.22;0.10;;;25.10;54.10;;;;;;5018190;28;20041;-80
2021/07/28 08:26:50;;;;;;;0.03;0.00;;;26.30;50.20;;;;;;5018391;28;20026;-82
2021/07/28 08:29:15;;;;;;;0.30;0.10;;;26.30;51.10;;;;;;5018193;28;20110;-81
2021/07/28 08:31:41;;;;;;;0.20;0.10;;;27.40;48.30;;;;;;5017208;28;20403;-81
2021/07/28 08:34:07;;;;;;;0.20;0.05;;;27.80;47.30;;;;;;5017988;28;20053;-80
2021/07/28 08:36:32;;;;;;;0.28;0.05;;;26.90;48.10;;;;;;5017893;28;20038;-80
2021/07/28 08:38:58;;;;;;;0.10;0.10;;;25.40;51.00;;;;;;5018025;28;20030;-80
2021/07/28 08:41:26;;;;;;;0.00;0.00;;;26.50;48.60;;;;;;5017750;28;20026;-81
2021/07/28 08:43:57;;;;;;;0.30;0.10;;;25.80;49.80;;;;;;5017509;28;20484;-80
2021/07/28 08:46:26;;;;;;;0.00;0.00;;;24.90;52.20;;;;;;5024065;28;20333;-80
2021/07/28 08:48:51;;;;;;;0.20;0.10;;;23.90;54.20;;;;;;5037241;28;20083;-80
2021/07/28 08:51:17;;;;;;;0.20;0.17;;;23.80;55.50;;;;;;5026603;28;20030;-80
2021/07/28 08:53:43;;;;;;;0.10;0.10;;;24.80;53.40;;;;;;5030056;28;20112;-80
2021/07/28 08:56:09;;;;;;;0.10;0.10;;;26.20;49.40;;;;;;5036229;28;20090;-80
2021/07/28 08:58:35;;;;;;;0.13;0.10;;;26.80;47.60;;;;;;5034500;28;20017;-80
2021/07/28 09:01:01;;;;;;;0.20;0.10;;;28.00;45.00;;;;;;5017711;28;20057;-80
2021/07/28 09:03:27;;;;;;;0.13;0.00;;;28.80;42.50;;;;;;5017772;28;20400;-79
2021/07/28 09:05:59;;;;;;;0.10;0.10;;;27.90;44.80;;;;;;5017690;28;20050;-80
2021/07/28 09:08:31;;;;;;;0.20;0.10;;;28.80;42.70;;;;;;5029737;28;20029;-81
2021/07/28 09:10:58;;;;;;;0.00;0.00;;;29.10;42.00;;;;;;5017207;28;20046;-80
2021/07/28 09:13:38;;;;;;;0.10;0.00;;;27.90;43.60;;;;;;5025173;28;20064;-80
2021/07/28 09:16:05;;;;;;;0.10;0.10;;;28.10;44.50;;;;;;5037131;28;20459;-80
2021/07/28 09:18:34;;;;;;;0.20;0.10;;;28.80;42.30;;;;;;5036883;28;20116;-80
2021/07/28 09:21:04;;;;;;;0.10;0.10;;;29.10;42.10;;;;;;5017326;28;20029;-80
2021/07/28 09:23:39;;;;;;;0.22;0.17;;;29.40;39.60;;;;;;5017080;28;20030;-81
2021/07/28 09:26:53;;;;;;;0.13;0.00;;;29.60;41.50;;;;;;5017254;28;20400;-80
2021/07/28 09:29:21;;;;;;;0.03;0.00;;;28.00;42.80;;;;;;5016436;28;20217;-80
2021/07/28 09:31:52;;;;;;;0.10;0.10;;;26.10;46.50;;;;;;5017106;28;20026;-80
2021/07/28 09:34:19;;;;;;;0.22;0.20;;;25.80;46.90;;;;;;5016934;28;20133;-80
2021/07/28 09:36:45;;;;;;;0.22;0.10;;;26.30;47.80;;;;;;5015344;28;20022;-81
2021/07/28 09:39:23;;;;;;;0.20;0.10;;;27.90;44.90;;;;;;5016645;28;20026;-80
2021/07/28 09:41:49;;;;;;;0.20;0.10;;;28.40;41.50;;;;;;5015460;28;20109;-81
2021/07/28 09:44:42;;;;;;;0.10;0.10;;;28.60;41.50;;;;;;5016584;28;20060;-80
2021/07/28 09:47:24;;;;;;;0.20;0.10;;;30.30;39.50;;;;;;5028112;28;20044;-80
2021/07/28 09:50:10;;;;;;;0.10;0.00;;;29.90;37.30;;;;;;5037084;28;20454;-81
2021/07/28 09:52:36;;;;;;;0.10;0.10;;;30.00;36.90;;;;;;5019725;28;20037;-80
2021/07/28 09:55:25;;;;;;;0.10;0.10;;;30.20;36.80;;;;;;5018860;28;20038;-80
2021/07/28 09:57:56;;;;;;;0.10;0.10;;;31.10;36.00;;;;;;5016525;28;20029;-81
2021/07/28 10:00:24;;;;;;;0.03;0.00;;;30.90;36.00;;;;;;5016666;28;20033;-81
2021/07/28 10:02:51;;;;;;;0.05;0.00;;;30.90;34.90;;;;;;5016449;28;20026;-81
2021/07/28 10:05:22;;;;;;;0.10;0.10;;;30.80;34.80;;;;;;5016630;28;20037;-81
2021/07/28 10:07:52;;;;;;;0.10;0.10;;;31.10;35.20;;;;;;5021539;28;20034;-81
2021/07/28 10:10:20;;;;;;;0.13;0.10;;;31.40;33.40;;;;;;5020692;28;20473;-82
2021/07/28 10:12:49;;;;;;;0.10;0.10;;;31.80;33.90;;;;;;5016304;28;20101;-81
2021/07/28 10:15:15;;;;;;;0.10;0.10;;;31.20;34.20;;;;;;5015970;28;20033;-81
2021/07/28 10:17:42;;;;;;;0.10;0.10;;;30.90;35.00;;;;;;5016112;28;20022;-81
2021/07/28 10:20:13;;;;;;;0.15;0.10;;;30.50;33.90;;;;;;5016244;28;20076;-81
2021/07/28 10:22:40;;;;;;;0.10;0.10;;;30.50;33.80;;;;;;5016074;28;20101;-81
2021/07/28 10:25:13;;;;;;;0.10;0.10;;;31.10;35.20;;;;;;5030298;28;20431;-81
2021/07/28 10:27:49;;;;;;;0.10;0.10;;;31.60;32.50;;;;;;5020197;28;20044;-81
2021/07/28 10:30:19;;;;;;;0.10;0.10;;;32.10;32.90;;;;;;5021425;28;20088;-81
2021/07/28 10:32:45;;;;;;;0.05;0.05;;;31.20;33.20;;;;;;5015734;28;20030;-80
2021/07/28 10:35:29;;;;;;;0.00;0.00;;;31.00;34.50;;;;;;5015873;28;20106;-81
2021/07/28 10:38:01;;;;;;;0.10;0.00;;;31.10;34.00;;;;;;5025628;28;20395;-81
2021/07/28 10:40:27;;;;;;;0.03;0.00;;;30.30;34.80;;;;;;5035619;28;20037;-80
2021/07/28 10:42:55;;;;;;;0.05;0.00;;;29.10;35.90;;;;;;5033051;28;20036;-81
2021/07/28 10:45:25;;;;;;;0.00;0.00;;;27.70;37.50;;;;;;5015902;28;20025;-81
2021/07/28 10:47:52;;;;;;;0.10;0.00;;;26.90;38.80;;;;;;5034792;28;20025;-80
2021/07/28 10:50:20;;;;;;;0.00;0.00;;;26.70;40.50;;;;;;5030493;28;20021;-80
2021/07/28 10:52:50;;;;;;;0.00;0.00;;;26.50;40.50;;;;;;5019020;28;20463;-80
2021/07/28 10:55:18;;;;;;;0.00;0.00;;;26.30;42.60;;;;;;5021995;28;20034;-80
2021/07/28 10:57:53;;;;;;;0.00;0.00;;;26.30;41.10;;;;;;5030730;28;20022;-80
2021/07/28 11:00:37;;;;;;;0.10;0.00;;;26.30;41.70;;;;;;5014928;28;20033;-81
2021/07/28 11:03:06;;;;;;;0.10;0.00;;;26.20;41.10;;;;;;5015717;28;20026;-80
2021/07/28 11:05:35;;;;;;;0.00;0.00;;;26.20;43.70;;;;;;5015782;28;20026;-80
2021/07/28 11:08:05;;;;;;;0.00;0.00;;;26.20;41.60;;;;;;5015695;28;20032;-80
2021/07/28 11:10:41;;;;;;;;;;;26.40;42.70;;;;;;5015706;28;20018;-80
2021/07/28 11:13:08;;;;;;;0.10;0.10;;;26.70;43.00;;;;;;5015258;28;19905;-80
2021/07/28 11:15:35;;;;;;;0.00;0.00;;;26.50;40.70;;;;;;5015183;28;20034;-80
2021/07/28 11:18:01;;;;;;;0.00;0.00;;;26.40;43.60;;;;;;5015583;28;20076;-80
2021/07/28 11:20:39;;;;;;;0.10;0.00;;;26.20;43.50;;;;;;5015288;28;20030;-80
2021/07/28 11:23:28;;;;;;;0.00;0.00;;;26.50;43.60;;;;;;5015353;28;20485;-80
2021/07/28 11:25:58;;;;;;;0.00;0.00;;;26.60;41.50;;;;;;5015664;28;20041;-80
2021/07/28 11:28:24;;;;;;;0.20;0.10;;;26.20;41.10;;;;;;5015196;28;20026;-80
2021/07/28 11:31:01;;;;;;;0.10;0.10;;;26.30;41.00;;;;;;5033748;28;20040;-80
2021/07/28 11:33:31;;;;;;;0.00;0.00;;;26.00;42.30;;;;;;5035022;28;20033;-80
2021/07/28 11:35:58;;;;;;;0.00;0.00;;;26.10;41.30;;;;;;5035339;28;20045;-80
2021/07/28 11:38:26;;;;;;;0.15;0.00;;;26.00;42.30;;;;;;5024033;28;20092;-80
2021/07/28 11:41:00;;;;;;;0.10;0.10;;;25.90;42.00;;;;;;5015243;28;20079;-80
2021/07/28 11:43:29;;;;;;;0.20;0.10;;;25.90;42.10;;;;;;5014966;28;20026;-80
2021/07/28 11:46:00;;;;;;;0.00;0.00;;;26.00;41.50;;;;;;5017710;28;20025;-79
2021/07/28 11:48:31;;;;;;;0.00;0.00;;;25.80;41.40;;;;;;5015033;28;20033;-80
2021/07/28 11:51:04;;;;;;;0.20;0.10;;;26.10;42.10;;;;;;5014992;28;20146;-80
2021/07/28 11:53:31;;;;;;;0.30;0.10;;;26.30;42.00;;;;;;5025477;28;20037;-80
2021/07/28 11:56:10;;;;;;;0.10;0.10;;;26.50;41.70;;;;;;5025689;28;20121;-80
2021/07/28 11:58:42;;;;;;;0.25;0.10;;;26.50;42.90;;;;;;5014917;28;20033;-80
2021/07/28 12:01:18;;;;;;;0.10;0.00;;;26.40;40.40;;;;;;5015199;28;20033;-80
2021/07/28 12:04:08;;;;;;;0.10;0.08;;;26.40;41.00;;;;;;5029776;28;20022;-80
2021/07/28 12:06:35;;;;;;;0.00;0.00;;;26.90;42.30;;;;;;5021003;28;20441;-80
2021/07/28 12:09:24;;;;;;;0.00;0.00;;;26.80;40.90;;;;;;5018619;28;20449;-80
2021/07/28 12:12:01;;;;;;;0.00;0.00;;;26.50;40.70;;;;;;5018506;28;20511;-79
2021/07/28 12:14:27;;;;;;;0.08;0.00;;;26.50;41.10;;;;;;5018311;28;20528;-80
2021/07/28 12:17:00;;;;;;;0.00;0.00;;;26.50;42.50;;;;;;5018402;28;20073;-80
2021/07/28 12:19:38;;;;;;;0.10;0.10;;;26.50;41.40;;;;;;5018534;28;20033;-80
2021/07/28 12:22:13;;;;;;;0.10;0.00;;;26.40;41.50;;;;;;5020382;28;20025;-80
2021/07/28 12:24:44;;;;;;;0.13;0.00;;;26.50;41.80;;;;;;5038303;28;20033;-80
2021/07/28 12:27:25;;;;;;;0.00;0.00;;;26.20;41.10;;;;;;5032452;28;20113;-80
2021/07/28 12:29:59;;;;;;;0.10;0.05;;;25.50;43.10;;;;;;5017944;28;20029;-80
2021/07/28 12:32:45;;;;;;;0.08;0.00;;;25.70;43.80;;;;;;5018293;28;20030;-80
2021/07/28 12:35:29;;;;;;;0.00;0.00;;;25.50;42.10;;;;;;5018295;28;20076;-80
2021/07/28 12:38:04;;;;;;;0.10;0.00;;;25.40;42.30;;;;;;5017639;28;20132;-81
2021/07/28 12:40:29;;;;;;;0.10;0.00;;;25.40;42.70;;;;;;5016849;28;20098;-80
2021/07/28 12:42:55;;;;;;;0.10;0.00;;;25.30;43.10;;;;;;5018020;28;20116;-80
2021/07/28 12:45:23;;;;;;;0.17;0.10;;;25.30;42.80;;;;;;5016873;28;20034;-80
2021/07/28 12:47:49;;;;;;;0.10;0.10;;;25.40;44.90;;;;;;5036819;28;20030;-80
2021/07/28 12:50:14;;;;;;;0.03;0.03;;;26.00;43.70;;;;;;5033333;28;20028;-80
2021/07/28 12:52:43;;;;;;;0.20;0.03;;;26.00;42.50;;;;;;5021330;28;20085;-80
2021/07/28 12:55:09;;;;;;;0.00;0.00;;;25.50;41.90;;;;;;5037641;28;20053;-80
2021/07/28 12:57:35;;;;;;;0.10;0.10;;;25.30;42.90;;;;;;5037449;28;20029;-80